sensor_id;sensor_type;location;lat;lon;timestamp;pressure;altitude;pressure_sealevel;temperature;humidity
46456;BME280;64052;47.466;9.094;2022-10-22T00:02:10;95675.78;;;14.87;80.50
46456;BME280;64052;47.466;9.094;2022-10-22T00:07:12;95671.75;;;14.67;81.11
46456;BME280;64052;47.466;9.094;2022-10-22T00:12:14;95641.38;;;14.61;81.29
46456;BME280;64052;47.466;9.094;2022-10-22T00:17:16;95655.25;;;14.46;80.54
46456;BME280;64052;47.466;9.094;2022-10-22T00:22:17;95665.13;;;14.28;81.46
46456;BME280;64052;47.466;9.094;2022-10-22T00:27:19;95658.19;;;14.35;81.53
46456;BME280;64052;47.466;9.094;2022-10-22T00:32:20;95656.22;;;14.37;81.50
46456;BME280;64052;47.466;9.094;2022-10-22T00:37:22;95669.09;;;14.32;82.98
46456;BME280;64052;47.466;9.094;2022-10-22T00:42:25;95672.94;;;14.29;83.14
46456;BME280;64052;47.466;9.094;2022-10-22T00:47:32;95657.81;;;14.30;83.79
46456;BME280;64052;47.466;9.094;2022-10-22T00:52:35;95682.34;;;14.24;84.17
46456;BME280;64052;47.466;9.094;2022-10-22T00:57:36;95701.91;;;14.23;84.62
46456;BME280;64052;47.466;9.094;2022-10-22T01:02:38;95694.13;;;14.29;84.77
46456;BME280;64052;47.466;9.094;2022-10-22T01:07:43;95702.44;;;14.34;84.65
46456;BME280;64052;47.466;9.094;2022-10-22T01:13:20;95703.91;;;14.29;84.51
46456;BME280;64052;47.466;9.094;2022-10-22T01:23:51;95697.31;;;14.33;84.66
46456;BME280;64052;47.466;9.094;2022-10-22T01:29:11;95694.66;;;14.33;84.50
46456;BME280;64052;47.466;9.094;2022-10-22T01:39:46;95680.41;;;14.34;84.48
46456;BME280;64052;47.466;9.094;2022-10-22T01:44:49;95674.97;;;14.44;84.38
46456;BME280;64052;47.466;9.094;2022-10-22T01:50:09;95672.31;;;14.44;84.30
46456;BME280;64052;47.466;9.094;2022-10-22T01:55:35;95639.06;;;14.58;82.99
46456;BME280;64052;47.466;9.094;2022-10-22T02:00:46;95624.25;;;14.47;83.17
46456;BME280;64052;47.466;9.094;2022-10-22T02:05:54;95620.94;;;14.45;83.23
46456;BME280;64052;47.466;9.094;2022-10-22T02:10:57;95630.16;;;14.32;84.03
46456;BME280;64052;47.466;9.094;2022-10-22T02:16:00;95639.06;;;14.23;84.17
46456;BME280;64052;47.466;9.094;2022-10-22T02:21:02;95641.50;;;14.08;84.77
46456;BME280;64052;47.466;9.094;2022-10-22T02:26:30;95644.84;;;14.18;84.89
46456;BME280;64052;47.466;9.094;2022-10-22T02:31:36;95652.34;;;14.23;84.27
46456;BME280;64052;47.466;9.094;2022-10-22T02:36:40;95647.00;;;14.15;84.94
46456;BME280;64052;47.466;9.094;2022-10-22T02:41:50;95652.13;;;14.16;84.18
46456;BME280;64052;47.466;9.094;2022-10-22T02:46:51;95653.66;;;14.19;84.29
46456;BME280;64052;47.466;9.094;2022-10-22T02:51:53;95636.28;;;14.25;84.40
46456;BME280;64052;47.466;9.094;2022-10-22T03:02:18;95645.22;;;14.24;83.68
46456;BME280;64052;47.466;9.094;2022-10-22T03:07:19;95643.91;;;14.28;83.39
46456;BME280;64052;47.466;9.094;2022-10-22T03:12:21;95669.69;;;14.17;84.42
46456;BME280;64052;47.466;9.094;2022-10-22T03:17:23;95667.38;;;14.14;84.43
46456;BME280;64052;47.466;9.094;2022-10-22T03:22:27;95681.75;;;14.12;84.89
46456;BME280;64052;47.466;9.094;2022-10-22T03:27:29;95684.47;;;14.20;84.40
46456;BME280;64052;47.466;9.094;2022-10-22T03:32:30;95685.00;;;14.24;84.17
46456;BME280;64052;47.466;9.094;2022-10-22T03:37:32;95689.44;;;14.15;84.39
46456;BME280;64052;47.466;9.094;2022-10-22T03:42:34;95680.91;;;14.03;84.68
46456;BME280;64052;47.466;9.094;2022-10-22T03:47:36;95677.44;;;14.02;85.06
46456;BME280;64052;47.466;9.094;2022-10-22T03:52:38;95670.50;;;14.10;85.07
46456;BME280;64052;47.466;9.094;2022-10-22T04:03:03;95701.16;;;14.12;84.38
46456;BME280;64052;47.466;9.094;2022-10-22T04:08:05;95698.19;;;14.15;84.73
46456;BME280;64052;47.466;9.094;2022-10-22T04:13:06;95695.22;;;14.18;83.69
46456;BME280;64052;47.466;9.094;2022-10-22T04:18:08;95689.56;;;14.13;83.87
46456;BME280;64052;47.466;9.094;2022-10-22T04:23:09;95689.91;;;14.10;84.16
46456;BME280;64052;47.466;9.094;2022-10-22T04:28:10;95695.66;;;14.05;84.73
46456;BME280;64052;47.466;9.094;2022-10-22T04:33:12;95687.19;;;14.02;84.87
46456;BME280;64052;47.466;9.094;2022-10-22T04:43:38;95688.50;;;13.98;84.62
46456;BME280;64052;47.466;9.094;2022-10-22T04:48:40;95690.16;;;13.99;84.84
46456;BME280;64052;47.466;9.094;2022-10-22T04:53:42;95694.19;;;13.85;85.45
46456;BME280;64052;47.466;9.094;2022-10-22T04:58:44;95690.41;;;13.87;85.46
46456;BME280;64052;47.466;9.094;2022-10-22T05:03:47;95681.69;;;13.95;85.10
46456;BME280;64052;47.466;9.094;2022-10-22T05:08:54;95686.31;;;13.93;85.44
46456;BME280;64052;47.466;9.094;2022-10-22T05:13:57;95685.19;;;13.96;85.56
46456;BME280;64052;47.466;9.094;2022-10-22T05:19:00;95692.28;;;13.95;85.14
46456;BME280;64052;47.466;9.094;2022-10-22T05:24:02;95693.63;;;13.99;85.44
46456;BME280;64052;47.466;9.094;2022-10-22T05:29:03;95704.09;;;14.01;85.62
46456;BME280;64052;47.466;9.094;2022-10-22T05:34:05;95716.66;;;13.99;85.81
46456;BME280;64052;47.466;9.094;2022-10-22T05:39:06;95716.81;;;13.97;85.77
46456;BME280;64052;47.466;9.094;2022-10-22T05:44:10;95715.69;;;14.00;85.25
46456;BME280;64052;47.466;9.094;2022-10-22T05:49:14;95723.78;;;13.98;85.20
46456;BME280;64052;47.466;9.094;2022-10-22T05:54:17;95723.16;;;14.04;84.67
46456;BME280;64052;47.466;9.094;2022-10-22T05:59:19;95730.72;;;13.99;85.13
46456;BME280;64052;47.466;9.094;2022-10-22T06:04:20;95733.56;;;13.98;85.68
46456;BME280;64052;47.466;9.094;2022-10-22T06:09:28;95740.97;;;13.94;85.99
46456;BME280;64052;47.466;9.094;2022-10-22T06:14:30;95743.00;;;14.00;85.55
46456;BME280;64052;47.466;9.094;2022-10-22T06:19:32;95750.34;;;14.07;85.60
46456;BME280;64052;47.466;9.094;2022-10-22T06:24:33;95753.19;;;14.13;85.65
46456;BME280;64052;47.466;9.094;2022-10-22T06:29:35;95756.00;;;14.12;85.57
46456;BME280;64052;47.466;9.094;2022-10-22T06:34:36;95766.00;;;14.18;85.85
46456;BME280;64052;47.466;9.094;2022-10-22T06:39:38;95773.94;;;14.18;85.39
46456;BME280;64052;47.466;9.094;2022-10-22T06:44:39;95765.78;;;14.11;85.54
46456;BME280;64052;47.466;9.094;2022-10-22T06:49:40;95771.41;;;14.08;86.32
46456;BME280;64052;47.466;9.094;2022-10-22T06:54:42;95772.22;;;14.09;87.25
46456;BME280;64052;47.466;9.094;2022-10-22T06:59:45;95781.44;;;14.23;86.95
46456;BME280;64052;47.466;9.094;2022-10-22T07:04:47;95795.38;;;14.25;86.23
46456;BME280;64052;47.466;9.094;2022-10-22T07:09:48;95799.38;;;14.29;86.00
46456;BME280;64052;47.466;9.094;2022-10-22T07:14:51;95811.34;;;14.33;86.09
46456;BME280;64052;47.466;9.094;2022-10-22T07:19:53;95820.53;;;14.47;85.69
46456;BME280;64052;47.466;9.094;2022-10-22T07:24:54;95827.69;;;14.46;86.13
46456;BME280;64052;47.466;9.094;2022-10-22T07:29:56;95840.84;;;14.56;85.53
46456;BME280;64052;47.466;9.094;2022-10-22T07:34:57;95852.22;;;14.48;85.75
46456;BME280;64052;47.466;9.094;2022-10-22T07:39:58;95842.97;;;14.53;86.18
46456;BME280;64052;47.466;9.094;2022-10-22T07:45:04;95840.91;;;14.65;85.72
46456;BME280;64052;47.466;9.094;2022-10-22T07:50:06;95852.94;;;14.77;86.05
46456;BME280;64052;47.466;9.094;2022-10-22T07:55:08;95858.13;;;14.87;85.81
46456;BME280;64052;47.466;9.094;2022-10-22T08:00:10;95855.22;;;14.98;85.33
46456;BME280;64052;47.466;9.094;2022-10-22T08:05:14;95869.69;;;15.12;85.65
46456;BME280;64052;47.466;9.094;2022-10-22T08:10:16;95871.44;;;15.30;86.60
46456;BME280;64052;47.466;9.094;2022-10-22T08:15:17;95873.84;;;15.58;86.34
46456;BME280;64052;47.466;9.094;2022-10-22T08:20:19;95874.22;;;15.71;84.20
46456;BME280;64052;47.466;9.094;2022-10-22T08:25:20;95877.41;;;15.83;83.33
46456;BME280;64052;47.466;9.094;2022-10-22T08:30:22;95876.16;;;16.12;84.02
46456;BME280;64052;47.466;9.094;2022-10-22T08:35:23;95868.69;;;16.41;82.36
46456;BME280;64052;47.466;9.094;2022-10-22T08:40:33;95857.31;;;16.72;80.85
46456;BME280;64052;47.466;9.094;2022-10-22T08:50:51;95870.56;;;16.97;77.52
46456;BME280;64052;47.466;9.094;2022-10-22T08:55:55;95866.44;;;16.94;76.53
46456;BME280;64052;47.466;9.094;2022-10-22T09:06:22;95873.91;;;17.16;76.37
46456;BME280;64052;47.466;9.094;2022-10-22T09:11:34;95884.13;;;17.44;74.93
46456;BME280;64052;47.466;9.094;2022-10-22T09:16:48;95875.69;;;17.63;74.22
46456;BME280;64052;47.466;9.094;2022-10-22T09:27:26;95884.31;;;18.05;72.00
46456;BME280;64052;47.466;9.094;2022-10-22T09:32:28;95876.56;;;18.19;67.87
46456;BME280;64052;47.466;9.094;2022-10-22T09:37:29;95875.59;;;18.35;65.67
46456;BME280;64052;47.466;9.094;2022-10-22T09:42:31;95878.94;;;18.52;63.90
46456;BME280;64052;47.466;9.094;2022-10-22T09:47:40;95879.09;;;18.74;62.16
46456;BME280;64052;47.466;9.094;2022-10-22T09:53:30;95884.28;;;18.90;60.47
46456;BME280;64052;47.466;9.094;2022-10-22T09:58:41;95884.97;;;19.22;56.79
46456;BME280;64052;47.466;9.094;2022-10-22T10:03:43;95879.63;;;19.52;57.51
46456;BME280;64052;47.466;9.094;2022-10-22T10:08:45;95892.09;;;19.82;57.48
46456;BME280;64052;47.466;9.094;2022-10-22T10:14:11;95892.22;;;20.11;55.34
46456;BME280;64052;47.466;9.094;2022-10-22T10:30:14;95890.47;;;22.16;51.73
46456;BME280;64052;47.466;9.094;2022-10-22T10:40:47;95891.06;;;25.64;42.29
46456;BME280;64052;47.466;9.094;2022-10-22T10:51:24;95900.31;;;25.12;41.06
46456;BME280;64052;47.466;9.094;2022-10-22T10:56:41;95902.38;;;24.27;42.44
46456;BME280;64052;47.466;9.094;2022-10-22T11:01:48;95903.47;;;24.52;42.87
46456;BME280;64052;47.466;9.094;2022-10-22T11:06:56;95904.56;;;26.75;38.04
46456;BME280;64052;47.466;9.094;2022-10-22T11:12:22;95898.63;;;29.58;32.60
46456;BME280;64052;47.466;9.094;2022-10-22T11:17:37;95895.66;;;31.62;29.19
46456;BME280;64052;47.466;9.094;2022-10-22T11:28:28;95893.97;;;33.81;25.34
46456;BME280;64052;47.466;9.094;2022-10-22T11:33:41;95878.53;;;34.16;24.40
46456;BME280;64052;47.466;9.094;2022-10-22T11:38:46;95878.81;;;34.65;23.79
46456;BME280;64052;47.466;9.094;2022-10-22T11:59:46;95876.88;;;36.08;21.83
46456;BME280;64052;47.466;9.094;2022-10-22T12:04:48;95879.63;;;36.08;21.52
46456;BME280;64052;47.466;9.094;2022-10-22T12:09:50;95876.72;;;35.45;23.17
46456;BME280;64052;47.466;9.094;2022-10-22T12:14:56;95877.41;;;36.29;20.79
46456;BME280;64052;47.466;9.094;2022-10-22T12:20:03;95866.78;;;36.41;20.71
46456;BME280;64052;47.466;9.094;2022-10-22T12:25:20;95856.66;;;35.98;21.31
46456;BME280;64052;47.466;9.094;2022-10-22T12:30:23;95852.41;;;36.31;21.17
46456;BME280;64052;47.466;9.094;2022-10-22T12:35:27;95846.31;;;36.14;21.27
46456;BME280;64052;47.466;9.094;2022-10-22T12:40:32;95858.94;;;36.35;20.84
46456;BME280;64052;47.466;9.094;2022-10-22T12:45:35;95841.50;;;36.06;20.31
46456;BME280;64052;47.466;9.094;2022-10-22T12:50:43;95849.19;;;35.80;20.95
46456;BME280;64052;47.466;9.094;2022-10-22T12:55:47;95854.91;;;35.83;20.96
46456;BME280;64052;47.466;9.094;2022-10-22T13:00:54;95858.25;;;35.31;21.21
46456;BME280;64052;47.466;9.094;2022-10-22T13:05:56;95853.06;;;34.95;21.28
46456;BME280;64052;47.466;9.094;2022-10-22T13:11:10;95858.94;;;34.43;21.78
46456;BME280;64052;47.466;9.094;2022-10-22T13:16:20;95855.06;;;34.10;21.46
46456;BME280;64052;47.466;9.094;2022-10-22T13:21:32;95857.81;;;34.04;22.78
46456;BME280;64052;47.466;9.094;2022-10-22T13:26:35;95853.25;;;34.34;22.03
46456;BME280;64052;47.466;9.094;2022-10-22T13:31:45;95838.69;;;33.94;21.76
46456;BME280;64052;47.466;9.094;2022-10-22T13:36:47;95843.59;;;32.64;24.27
46456;BME280;64052;47.466;9.094;2022-10-22T13:41:50;95845.97;;;32.08;25.26
46456;BME280;64052;47.466;9.094;2022-10-22T13:46:51;95833.78;;;31.52;25.86
46456;BME280;64052;47.466;9.094;2022-10-22T13:51:53;95833.22;;;30.69;26.22
46456;BME280;64052;47.466;9.094;2022-10-22T13:56:54;95838.97;;;30.13;26.91
46456;BME280;64052;47.466;9.094;2022-10-22T14:01:56;95840.13;;;29.72;27.99
46456;BME280;64052;47.466;9.094;2022-10-22T14:06:57;95824.81;;;29.22;28.32
46456;BME280;64052;47.466;9.094;2022-10-22T14:12:11;95825.38;;;28.84;29.51
46456;BME280;64052;47.466;9.094;2022-10-22T14:17:14;95821.38;;;28.58;30.14
46456;BME280;64052;47.466;9.094;2022-10-22T14:22:17;95822.59;;;27.87;29.93
46456;BME280;64052;47.466;9.094;2022-10-22T14:27:19;95825.69;;;26.90;32.26
46456;BME280;64052;47.466;9.094;2022-10-22T14:32:20;95829.16;;;26.12;32.22
46456;BME280;64052;47.466;9.094;2022-10-22T14:37:22;95829.47;;;25.36;34.31
46456;BME280;64052;47.466;9.094;2022-10-22T14:42:24;95827.88;;;24.91;36.08
46456;BME280;64052;47.466;9.094;2022-10-22T14:47:26;95833.88;;;24.67;36.06
46456;BME280;64052;47.466;9.094;2022-10-22T14:52:27;95826.06;;;24.34;37.66
46456;BME280;64052;47.466;9.094;2022-10-22T14:57:29;95826.63;;;24.10;40.95
46456;BME280;64052;47.466;9.094;2022-10-22T15:02:30;95828.88;;;23.81;40.84
46456;BME280;64052;47.466;9.094;2022-10-22T15:07:32;95822.28;;;23.70;41.62
46456;BME280;64052;47.466;9.094;2022-10-22T15:12:33;95820.88;;;23.61;38.80
46456;BME280;64052;47.466;9.094;2022-10-22T15:17:35;95828.16;;;23.54;38.66
46456;BME280;64052;47.466;9.094;2022-10-22T15:22:36;95829.66;;;23.43;42.74
46456;BME280;64052;47.466;9.094;2022-10-22T15:27:38;95822.25;;;23.25;44.32
46456;BME280;64052;47.466;9.094;2022-10-22T15:32:39;95821.84;;;23.21;44.65
46456;BME280;64052;47.466;9.094;2022-10-22T15:37:41;95826.88;;;22.91;48.24
46456;BME280;64052;47.466;9.094;2022-10-22T15:42:43;95822.31;;;22.37;49.42
46456;BME280;64052;47.466;9.094;2022-10-22T15:47:45;95834.81;;;21.76;51.74
46456;BME280;64052;47.466;9.094;2022-10-22T15:52:48;95841.03;;;21.34;51.25
46456;BME280;64052;47.466;9.094;2022-10-22T15:57:53;95851.78;;;20.99;52.95
46456;BME280;64052;47.466;9.094;2022-10-22T16:02:54;95857.28;;;20.62;54.96
46456;BME280;64052;47.466;9.094;2022-10-22T16:07:56;95851.09;;;20.40;56.05
46456;BME280;64052;47.466;9.094;2022-10-22T16:12:57;95854.13;;;20.08;56.71
46456;BME280;64052;47.466;9.094;2022-10-22T16:17:58;95858.25;;;19.74;57.29
46456;BME280;64052;47.466;9.094;2022-10-22T16:23:00;95855.66;;;19.44;57.98
46456;BME280;64052;47.466;9.094;2022-10-22T16:28:01;95845.72;;;19.08;59.21
46456;BME280;64052;47.466;9.094;2022-10-22T16:33:05;95852.31;;;18.82;60.24
46456;BME280;64052;47.466;9.094;2022-10-22T16:38:08;95854.84;;;18.60;60.83
46456;BME280;64052;47.466;9.094;2022-10-22T16:43:09;95858.25;;;18.54;60.77
46456;BME280;64052;47.466;9.094;2022-10-22T16:48:11;95861.25;;;18.36;62.02
46456;BME280;64052;47.466;9.094;2022-10-22T16:53:12;95872.94;;;18.35;62.32
46456;BME280;64052;47.466;9.094;2022-10-22T16:58:14;95883.19;;;18.23;62.94
46456;BME280;64052;47.466;9.094;2022-10-22T17:03:15;95892.63;;;18.02;63.23
46456;BME280;64052;47.466;9.094;2022-10-22T17:08:17;95902.09;;;17.81;64.00
46456;BME280;64052;47.466;9.094;2022-10-22T17:13:18;95894.63;;;17.77;64.19
46456;BME280;64052;47.466;9.094;2022-10-22T17:18:19;95898.66;;;17.73;64.32
46456;BME280;64052;47.466;9.094;2022-10-22T17:23:21;95906.22;;;17.52;64.91
46456;BME280;64052;47.466;9.094;2022-10-22T17:28:22;95903.63;;;17.36;65.69
46456;BME280;64052;47.466;9.094;2022-10-22T17:33:24;95897.34;;;17.28;65.43
46456;BME280;64052;47.466;9.094;2022-10-22T17:38:26;95913.66;;;17.25;65.63
46456;BME280;64052;47.466;9.094;2022-10-22T17:43:28;95911.19;;;17.24;65.85
46456;BME280;64052;47.466;9.094;2022-10-22T17:48:29;95908.25;;;17.02;64.87
46456;BME280;64052;47.466;9.094;2022-10-22T17:53:30;95907.88;;;17.05;64.61
46456;BME280;64052;47.466;9.094;2022-10-22T17:58:32;95906.56;;;16.93;64.40
46456;BME280;64052;47.466;9.094;2022-10-22T18:03:34;95913.91;;;16.74;65.29
46456;BME280;64052;47.466;9.094;2022-10-22T18:08:35;95911.59;;;16.54;65.21
46456;BME280;64052;47.466;9.094;2022-10-22T18:13:37;95911.44;;;16.31;66.19
46456;BME280;64052;47.466;9.094;2022-10-22T18:18:38;95912.91;;;16.25;66.71
46456;BME280;64052;47.466;9.094;2022-10-22T18:23:40;95912.06;;;16.25;65.67
46456;BME280;64052;47.466;9.094;2022-10-22T18:28:41;95909.75;;;16.22;64.74
46456;BME280;64052;47.466;9.094;2022-10-22T18:33:43;95903.09;;;16.09;65.45
46456;BME280;64052;47.466;9.094;2022-10-22T18:38:52;95907.38;;;15.94;66.35
46456;BME280;64052;47.466;9.094;2022-10-22T18:43:56;95905.59;;;15.68;66.94
46456;BME280;64052;47.466;9.094;2022-10-22T18:48:58;95898.69;;;15.83;66.38
46456;BME280;64052;47.466;9.094;2022-10-22T18:54:00;95906.97;;;15.72;67.05
46456;BME280;64052;47.466;9.094;2022-10-22T18:59:23;95904.59;;;15.60;66.99
46456;BME280;64052;47.466;9.094;2022-10-22T19:04:26;95899.25;;;15.52;67.26
46456;BME280;64052;47.466;9.094;2022-10-22T19:09:28;95906.22;;;15.53;67.66
46456;BME280;64052;47.466;9.094;2022-10-22T19:14:30;95906.78;;;15.30;67.32
46456;BME280;64052;47.466;9.094;2022-10-22T19:19:32;95911.41;;;15.20;66.98
46456;BME280;64052;47.466;9.094;2022-10-22T19:24:33;95917.41;;;15.22;67.47
46456;BME280;64052;47.466;9.094;2022-10-22T19:29:35;95920.19;;;15.21;67.55
46456;BME280;64052;47.466;9.094;2022-10-22T19:34:36;95915.34;;;15.08;67.51
46456;BME280;64052;47.466;9.094;2022-10-22T19:39:38;95916.09;;;15.00;67.29
46456;BME280;64052;47.466;9.094;2022-10-22T19:44:39;95902.59;;;14.85;67.20
46456;BME280;64052;47.466;9.094;2022-10-22T19:49:41;95904.38;;;14.76;67.28
46456;BME280;64052;47.466;9.094;2022-10-22T19:54:42;95908.38;;;14.80;66.78
46456;BME280;64052;47.466;9.094;2022-10-22T19:59:44;95909.34;;;14.79;66.02
46456;BME280;64052;47.466;9.094;2022-10-22T20:04:45;95904.19;;;14.59;67.04
46456;BME280;64052;47.466;9.094;2022-10-22T20:09:50;95906.63;;;14.53;67.34
46456;BME280;64052;47.466;9.094;2022-10-22T20:14:51;95904.16;;;14.51;67.89
46456;BME280;64052;47.466;9.094;2022-10-22T20:19:53;95901.25;;;14.44;68.36
46456;BME280;64052;47.466;9.094;2022-10-22T20:24:54;95905.44;;;14.47;68.31
46456;BME280;64052;47.466;9.094;2022-10-22T20:29:56;95906.22;;;14.39;67.10
46456;BME280;64052;47.466;9.094;2022-10-22T20:34:57;95913.94;;;14.32;67.39
46456;BME280;64052;47.466;9.094;2022-10-22T20:39:59;95902.44;;;14.24;68.21
46456;BME280;64052;47.466;9.094;2022-10-22T20:45:00;95903.19;;;14.16;68.56
46456;BME280;64052;47.466;9.094;2022-10-22T20:50:02;95910.47;;;14.14;68.93
46456;BME280;64052;47.466;9.094;2022-10-22T20:55:04;95900.91;;;14.03;69.46
46456;BME280;64052;47.466;9.094;2022-10-22T21:00:06;95899.16;;;13.94;69.72
46456;BME280;64052;47.466;9.094;2022-10-22T21:05:08;95908.63;;;13.78;70.64
46456;BME280;64052;47.466;9.094;2022-10-22T21:10:09;95899.31;;;13.74;69.85
46456;BME280;64052;47.466;9.094;2022-10-22T21:15:11;95895.59;;;13.85;69.03
46456;BME280;64052;47.466;9.094;2022-10-22T21:20:13;95903.72;;;13.83;68.75
46456;BME280;64052;47.466;9.094;2022-10-22T21:25:14;95898.16;;;13.76;69.22
46456;BME280;64052;47.466;9.094;2022-10-22T21:30:16;95896.69;;;13.64;68.73
46456;BME280;64052;47.466;9.094;2022-10-22T21:35:17;95890.28;;;13.67;68.84
46456;BME280;64052;47.466;9.094;2022-10-22T21:40:19;95900.94;;;13.57;69.33
46456;BME280;64052;47.466;9.094;2022-10-22T21:45:20;95891.16;;;13.57;69.30
46456;BME280;64052;47.466;9.094;2022-10-22T21:50:22;95893.69;;;13.59;69.34
46456;BME280;64052;47.466;9.094;2022-10-22T21:55:24;95883.19;;;13.67;68.46
46456;BME280;64052;47.466;9.094;2022-10-22T22:00:25;95876.97;;;13.58;68.28
46456;BME280;64052;47.466;9.094;2022-10-22T22:05:27;95876.19;;;13.48;68.75
46456;BME280;64052;47.466;9.094;2022-10-22T22:10:29;95878.47;;;13.33;68.66
46456;BME280;64052;47.466;9.094;2022-10-22T22:15:30;95881.97;;;13.24;69.32
46456;BME280;64052;47.466;9.094;2022-10-22T22:20:32;95892.19;;;13.18;69.56
46456;BME280;64052;47.466;9.094;2022-10-22T22:25:33;95883.84;;;13.13;70.42
46456;BME280;64052;47.466;9.094;2022-10-22T22:30:34;95877.34;;;12.98;70.48
46456;BME280;64052;47.466;9.094;2022-10-22T22:35:36;95874.72;;;12.98;70.56
46456;BME280;64052;47.466;9.094;2022-10-22T22:40:42;95858.53;;;13.01;69.46
46456;BME280;64052;47.466;9.094;2022-10-22T22:45:44;95858.25;;;13.04;69.38
46456;BME280;64052;47.466;9.094;2022-10-22T22:50:45;95850.34;;;12.94;69.96
46456;BME280;64052;47.466;9.094;2022-10-22T22:55:47;95849.72;;;12.82;70.70
46456;BME280;64052;47.466;9.094;2022-10-22T23:00:48;95830.75;;;12.87;69.66
46456;BME280;64052;47.466;9.094;2022-10-22T23:05:50;95832.72;;;12.75;69.70
46456;BME280;64052;47.466;9.094;2022-10-22T23:10:51;95838.88;;;12.75;69.26
46456;BME280;64052;47.466;9.094;2022-10-22T23:15:53;95838.97;;;12.46;70.82
46456;BME280;64052;47.466;9.094;2022-10-22T23:20:54;95844.25;;;12.46;70.35
46456;BME280;64052;47.466;9.094;2022-10-22T23:25:55;95837.88;;;12.29;70.50
46456;BME280;64052;47.466;9.094;2022-10-22T23:31:02;95841.06;;;12.32;70.50
46456;BME280;64052;47.466;9.094;2022-10-22T23:36:04;95825.06;;;12.24;70.61
46456;BME280;64052;47.466;9.094;2022-10-22T23:41:06;95824.53;;;12.20;71.20
46456;BME280;64052;47.466;9.094;2022-10-22T23:46:10;95825.63;;;12.28;71.06
46456;BME280;64052;47.466;9.094;2022-10-22T23:51:13;95827.16;;;12.20;71.20
46456;BME280;64052;47.466;9.094;2022-10-22T23:56:16;95819.81;;;12.14;70.60
